sensor_id;sensor_type;location;lat;lon;timestamp;P1;durP1;ratioP1;P2;durP2;ratioP2
3997;SDS011;61314;53.444;9.902;2022-10-13T00:00:11;10.52;;;4.07;;
3997;SDS011;61314;53.444;9.902;2022-10-13T00:02:38;15.27;;;4.20;;
3997;SDS011;61314;53.444;9.902;2022-10-13T00:05:05;11.02;;;3.65;;
3997;SDS011;61314;53.444;9.902;2022-10-13T00:07:32;7.35;;;4.53;;
3997;SDS011;61314;53.444;9.902;2022-10-13T00:09:59;8.05;;;4.05;;
3997;SDS011;61314;53.444;9.902;2022-10-13T00:12:26;9.57;;;4.28;;
3997;SDS011;61314;53.444;9.902;2022-10-13T00:14:53;14.55;;;4.53;;
3997;SDS011;61314;53.444;9.902;2022-10-13T00:17:20;5.28;;;3.90;;
3997;SDS011;61314;53.444;9.902;2022-10-13T00:19:47;8.70;;;3.65;;
3997;SDS011;61314;53.444;9.902;2022-10-13T00:22:14;12.30;;;4.50;;
3997;SDS011;61314;53.444;9.902;2022-10-13T00:24:42;7.10;;;3.70;;
3997;SDS011;61314;53.444;9.902;2022-10-13T00:27:09;7.45;;;4.00;;
3997;SDS011;61314;53.444;9.902;2022-10-13T00:29:36;9.43;;;4.40;;
3997;SDS011;61314;53.444;9.902;2022-10-13T00:32:03;8.95;;;4.40;;
3997;SDS011;61314;53.444;9.902;2022-10-13T00:34:30;10.82;;;4.07;;
3997;SDS011;61314;53.444;9.902;2022-10-13T00:36:57;7.15;;;3.80;;
3997;SDS011;61314;53.444;9.902;2022-10-13T00:39:24;6.15;;;4.30;;
3997;SDS011;61314;53.444;9.902;2022-10-13T00:41:51;9.15;;;4.05;;
3997;SDS011;61314;53.444;9.902;2022-10-13T00:47:05;11.60;;;4.10;;
3997;SDS011;61314;53.444;9.902;2022-10-13T00:49:32;4.72;;;3.80;;
3997;SDS011;61314;53.444;9.902;2022-10-13T00:51:59;12.60;;;4.80;;
3997;SDS011;61314;53.444;9.902;2022-10-13T00:54:26;14.20;;;4.50;;
3997;SDS011;61314;53.444;9.902;2022-10-13T00:56:54;12.10;;;4.80;;
3997;SDS011;61314;53.444;9.902;2022-10-13T00:59:25;6.07;;;4.20;;
3997;SDS011;61314;53.444;9.902;2022-10-13T01:01:54;10.90;;;4.93;;
3997;SDS011;61314;53.444;9.902;2022-10-13T01:04:22;5.22;;;4.10;;
3997;SDS011;61314;53.444;9.902;2022-10-13T01:06:50;11.27;;;4.30;;
3997;SDS011;61314;53.444;9.902;2022-10-13T01:09:18;10.95;;;4.82;;
3997;SDS011;61314;53.444;9.902;2022-10-13T01:14:20;8.90;;;5.53;;
3997;SDS011;61314;53.444;9.902;2022-10-13T01:17:06;11.10;;;5.05;;
3997;SDS011;61314;53.444;9.902;2022-10-13T01:22:29;14.68;;;4.53;;
3997;SDS011;61314;53.444;9.902;2022-10-13T01:25:16;10.77;;;5.13;;
3997;SDS011;61314;53.444;9.902;2022-10-13T01:30:36;13.85;;;5.05;;
3997;SDS011;61314;53.444;9.902;2022-10-13T01:33:10;14.52;;;4.97;;
3997;SDS011;61314;53.444;9.902;2022-10-13T01:35:41;12.63;;;4.28;;
3997;SDS011;61314;53.444;9.902;2022-10-13T01:38:15;8.05;;;4.50;;
3997;SDS011;61314;53.444;9.902;2022-10-13T01:40:54;9.27;;;4.90;;
3997;SDS011;61314;53.444;9.902;2022-10-13T01:43:24;8.05;;;4.60;;
3997;SDS011;61314;53.444;9.902;2022-10-13T01:45:56;11.18;;;5.68;;
3997;SDS011;61314;53.444;9.902;2022-10-13T01:48:24;11.13;;;4.70;;
3997;SDS011;61314;53.444;9.902;2022-10-13T01:50:52;15.77;;;6.40;;
3997;SDS011;61314;53.444;9.902;2022-10-13T01:53:19;7.28;;;5.00;;
3997;SDS011;61314;53.444;9.902;2022-10-13T01:55:48;5.53;;;4.72;;
3997;SDS011;61314;53.444;9.902;2022-10-13T01:58:15;9.93;;;5.20;;
3997;SDS011;61314;53.444;9.902;2022-10-13T02:00:45;8.27;;;5.63;;
3997;SDS011;61314;53.444;9.902;2022-10-13T02:06:11;11.35;;;5.18;;
3997;SDS011;61314;53.444;9.902;2022-10-13T02:08:43;10.98;;;4.90;;
3997;SDS011;61314;53.444;9.902;2022-10-13T02:11:15;10.23;;;5.40;;
3997;SDS011;61314;53.444;9.902;2022-10-13T02:13:44;6.72;;;5.00;;
3997;SDS011;61314;53.444;9.902;2022-10-13T02:16:13;6.45;;;5.50;;
3997;SDS011;61314;53.444;9.902;2022-10-13T02:18:40;11.18;;;4.80;;
3997;SDS011;61314;53.444;9.902;2022-10-13T02:21:08;8.48;;;4.45;;
3997;SDS011;61314;53.444;9.902;2022-10-13T02:23:35;9.68;;;4.63;;
3997;SDS011;61314;53.444;9.902;2022-10-13T02:26:02;12.63;;;5.20;;
3997;SDS011;61314;53.444;9.902;2022-10-13T02:28:29;9.68;;;5.43;;
3997;SDS011;61314;53.444;9.902;2022-10-13T02:30:57;7.53;;;5.00;;
3997;SDS011;61314;53.444;9.902;2022-10-13T02:33:24;7.55;;;4.75;;
3997;SDS011;61314;53.444;9.902;2022-10-13T02:35:51;9.27;;;5.43;;
3997;SDS011;61314;53.444;9.902;2022-10-13T02:38:18;10.10;;;5.00;;
3997;SDS011;61314;53.444;9.902;2022-10-13T02:40:45;9.38;;;5.05;;
3997;SDS011;61314;53.444;9.902;2022-10-13T02:43:12;18.08;;;5.53;;
3997;SDS011;61314;53.444;9.902;2022-10-13T02:45:39;6.03;;;4.75;;
3997;SDS011;61314;53.444;9.902;2022-10-13T02:48:06;9.20;;;5.05;;
3997;SDS011;61314;53.444;9.902;2022-10-13T02:50:33;10.95;;;5.78;;
3997;SDS011;61314;53.444;9.902;2022-10-13T02:53:00;8.32;;;5.97;;
3997;SDS011;61314;53.444;9.902;2022-10-13T02:55:28;9.73;;;5.53;;
3997;SDS011;61314;53.444;9.902;2022-10-13T02:57:55;6.90;;;5.70;;
3997;SDS011;61314;53.444;9.902;2022-10-13T03:00:22;14.75;;;6.00;;
3997;SDS011;61314;53.444;9.902;2022-10-13T03:02:49;14.07;;;6.65;;
3997;SDS011;61314;53.444;9.902;2022-10-13T03:05:16;17.73;;;5.68;;
3997;SDS011;61314;53.444;9.902;2022-10-13T03:07:43;13.52;;;5.82;;
3997;SDS011;61314;53.444;9.902;2022-10-13T03:10:10;11.48;;;5.88;;
3997;SDS011;61314;53.444;9.902;2022-10-13T03:12:37;18.10;;;6.28;;
3997;SDS011;61314;53.444;9.902;2022-10-13T03:15:04;9.27;;;5.65;;
3997;SDS011;61314;53.444;9.902;2022-10-13T03:17:31;14.38;;;6.07;;
3997;SDS011;61314;53.444;9.902;2022-10-13T03:19:58;9.00;;;5.25;;
3997;SDS011;61314;53.444;9.902;2022-10-13T03:22:25;15.95;;;7.40;;
3997;SDS011;61314;53.444;9.902;2022-10-13T03:24:53;8.20;;;5.70;;
3997;SDS011;61314;53.444;9.902;2022-10-13T03:27:20;10.18;;;6.32;;
3997;SDS011;61314;53.444;9.902;2022-10-13T03:29:47;13.32;;;7.00;;
3997;SDS011;61314;53.444;9.902;2022-10-13T03:32:14;6.95;;;5.60;;
3997;SDS011;61314;53.444;9.902;2022-10-13T03:34:42;9.95;;;6.13;;
3997;SDS011;61314;53.444;9.902;2022-10-13T03:37:09;13.30;;;6.60;;
3997;SDS011;61314;53.444;9.902;2022-10-13T03:39:36;9.65;;;6.78;;
3997;SDS011;61314;53.444;9.902;2022-10-13T03:42:03;16.63;;;6.38;;
3997;SDS011;61314;53.444;9.902;2022-10-13T03:44:30;14.00;;;6.60;;
3997;SDS011;61314;53.444;9.902;2022-10-13T03:46:57;19.02;;;8.43;;
3997;SDS011;61314;53.444;9.902;2022-10-13T03:49:24;10.98;;;6.60;;
3997;SDS011;61314;53.444;9.902;2022-10-13T03:51:51;16.00;;;7.25;;
3997;SDS011;61314;53.444;9.902;2022-10-13T03:54:18;15.63;;;8.05;;
3997;SDS011;61314;53.444;9.902;2022-10-13T03:56:45;17.23;;;6.93;;
3997;SDS011;61314;53.444;9.902;2022-10-13T03:59:12;16.55;;;6.78;;
3997;SDS011;61314;53.444;9.902;2022-10-13T04:01:41;14.43;;;7.00;;
3997;SDS011;61314;53.444;9.902;2022-10-13T04:04:09;13.82;;;7.80;;
3997;SDS011;61314;53.444;9.902;2022-10-13T04:06:36;11.00;;;6.68;;
3997;SDS011;61314;53.444;9.902;2022-10-13T04:09:04;12.18;;;8.38;;
3997;SDS011;61314;53.444;9.902;2022-10-13T04:11:31;12.77;;;6.75;;
3997;SDS011;61314;53.444;9.902;2022-10-13T04:13:58;15.70;;;7.40;;
3997;SDS011;61314;53.444;9.902;2022-10-13T04:16:27;14.48;;;8.20;;
3997;SDS011;61314;53.444;9.902;2022-10-13T04:18:56;12.23;;;7.50;;
3997;SDS011;61314;53.444;9.902;2022-10-13T04:21:23;18.08;;;8.85;;
3997;SDS011;61314;53.444;9.902;2022-10-13T04:23:52;15.30;;;7.28;;
3997;SDS011;61314;53.444;9.902;2022-10-13T04:26:20;12.77;;;8.13;;
3997;SDS011;61314;53.444;9.902;2022-10-13T04:28:48;18.23;;;8.20;;
3997;SDS011;61314;53.444;9.902;2022-10-13T04:31:16;18.25;;;8.57;;
3997;SDS011;61314;53.444;9.902;2022-10-13T04:33:43;13.13;;;8.98;;
3997;SDS011;61314;53.444;9.902;2022-10-13T04:36:11;20.73;;;7.55;;
3997;SDS011;61314;53.444;9.902;2022-10-13T04:38:39;15.45;;;7.50;;
3997;SDS011;61314;53.444;9.902;2022-10-13T04:41:06;15.43;;;6.82;;
3997;SDS011;61314;53.444;9.902;2022-10-13T04:43:33;19.17;;;8.10;;
3997;SDS011;61314;53.444;9.902;2022-10-13T04:46:01;13.60;;;7.78;;
3997;SDS011;61314;53.444;9.902;2022-10-13T04:48:29;16.45;;;9.30;;
3997;SDS011;61314;53.444;9.902;2022-10-13T04:50:59;18.10;;;9.02;;
3997;SDS011;61314;53.444;9.902;2022-10-13T04:53:26;15.80;;;9.10;;
3997;SDS011;61314;53.444;9.902;2022-10-13T04:55:55;19.08;;;8.70;;
3997;SDS011;61314;53.444;9.902;2022-10-13T04:58:22;21.42;;;9.52;;
3997;SDS011;61314;53.444;9.902;2022-10-13T05:00:49;20.02;;;9.52;;
3997;SDS011;61314;53.444;9.902;2022-10-13T05:03:16;19.85;;;9.82;;
3997;SDS011;61314;53.444;9.902;2022-10-13T05:05:43;16.80;;;10.00;;
3997;SDS011;61314;53.444;9.902;2022-10-13T05:08:10;20.88;;;11.27;;
3997;SDS011;61314;53.444;9.902;2022-10-13T05:10:37;20.83;;;9.60;;
3997;SDS011;61314;53.444;9.902;2022-10-13T05:13:04;20.17;;;9.68;;
3997;SDS011;61314;53.444;9.902;2022-10-13T05:15:32;20.77;;;10.02;;
3997;SDS011;61314;53.444;9.902;2022-10-13T05:17:59;21.02;;;9.93;;
3997;SDS011;61314;53.444;9.902;2022-10-13T05:20:26;19.95;;;9.70;;
3997;SDS011;61314;53.444;9.902;2022-10-13T05:22:53;33.83;;;11.65;;
3997;SDS011;61314;53.444;9.902;2022-10-13T05:25:20;18.90;;;11.95;;
3997;SDS011;61314;53.444;9.902;2022-10-13T05:27:47;19.35;;;11.55;;
3997;SDS011;61314;53.444;9.902;2022-10-13T05:30:14;22.90;;;12.60;;
3997;SDS011;61314;53.444;9.902;2022-10-13T05:32:41;16.08;;;11.63;;
3997;SDS011;61314;53.444;9.902;2022-10-13T05:35:08;22.58;;;12.32;;
3997;SDS011;61314;53.444;9.902;2022-10-13T05:37:35;16.98;;;11.10;;
3997;SDS011;61314;53.444;9.902;2022-10-13T05:40:02;22.67;;;12.07;;
3997;SDS011;61314;53.444;9.902;2022-10-13T05:42:29;25.92;;;12.63;;
3997;SDS011;61314;53.444;9.902;2022-10-13T05:44:57;26.60;;;12.48;;
3997;SDS011;61314;53.444;9.902;2022-10-13T05:47:24;22.83;;;12.25;;
3997;SDS011;61314;53.444;9.902;2022-10-13T05:49:53;19.65;;;11.13;;
3997;SDS011;61314;53.444;9.902;2022-10-13T05:52:20;21.05;;;11.85;;
3997;SDS011;61314;53.444;9.902;2022-10-13T05:54:50;40.13;;;13.73;;
3997;SDS011;61314;53.444;9.902;2022-10-13T05:57:20;19.85;;;11.00;;
3997;SDS011;61314;53.444;9.902;2022-10-13T05:59:49;18.58;;;9.90;;
3997;SDS011;61314;53.444;9.902;2022-10-13T06:02:17;22.38;;;10.52;;
3997;SDS011;61314;53.444;9.902;2022-10-13T06:04:48;18.00;;;10.15;;
3997;SDS011;61314;53.444;9.902;2022-10-13T06:07:16;20.58;;;10.20;;
3997;SDS011;61314;53.444;9.902;2022-10-13T06:09:43;18.80;;;10.65;;
3997;SDS011;61314;53.444;9.902;2022-10-13T06:12:10;16.58;;;10.80;;
3997;SDS011;61314;53.444;9.902;2022-10-13T06:14:37;18.58;;;10.40;;
3997;SDS011;61314;53.444;9.902;2022-10-13T06:17:04;27.90;;;11.00;;
3997;SDS011;61314;53.444;9.902;2022-10-13T06:19:31;17.30;;;10.20;;
3997;SDS011;61314;53.444;9.902;2022-10-13T06:21:59;18.90;;;11.18;;
3997;SDS011;61314;53.444;9.902;2022-10-13T06:24:28;17.00;;;11.35;;
3997;SDS011;61314;53.444;9.902;2022-10-13T06:26:55;19.23;;;11.70;;
3997;SDS011;61314;53.444;9.902;2022-10-13T06:29:22;21.55;;;12.77;;
3997;SDS011;61314;53.444;9.902;2022-10-13T06:31:49;21.25;;;12.63;;
3997;SDS011;61314;53.444;9.902;2022-10-13T06:34:16;24.00;;;13.35;;
3997;SDS011;61314;53.444;9.902;2022-10-13T06:36:43;27.42;;;13.65;;
3997;SDS011;61314;53.444;9.902;2022-10-13T06:39:10;26.77;;;13.15;;
3997;SDS011;61314;53.444;9.902;2022-10-13T06:41:37;23.65;;;12.40;;
3997;SDS011;61314;53.444;9.902;2022-10-13T06:44:04;20.58;;;11.85;;
3997;SDS011;61314;53.444;9.902;2022-10-13T06:46:31;24.08;;;12.32;;
3997;SDS011;61314;53.444;9.902;2022-10-13T06:48:58;17.42;;;11.93;;
3997;SDS011;61314;53.444;9.902;2022-10-13T06:51:25;16.83;;;11.50;;
3997;SDS011;61314;53.444;9.902;2022-10-13T06:53:54;30.67;;;12.80;;
3997;SDS011;61314;53.444;9.902;2022-10-13T06:56:22;14.68;;;11.18;;
3997;SDS011;61314;53.444;9.902;2022-10-13T06:58:49;31.38;;;13.80;;
3997;SDS011;61314;53.444;9.902;2022-10-13T07:01:16;24.10;;;13.40;;
3997;SDS011;61314;53.444;9.902;2022-10-13T07:03:43;19.80;;;12.82;;
3997;SDS011;61314;53.444;9.902;2022-10-13T07:06:10;24.33;;;13.80;;
3997;SDS011;61314;53.444;9.902;2022-10-13T07:08:37;21.52;;;14.23;;
3997;SDS011;61314;53.444;9.902;2022-10-13T07:11:05;24.02;;;14.35;;
3997;SDS011;61314;53.444;9.902;2022-10-13T07:13:38;20.52;;;12.77;;
3997;SDS011;61314;53.444;9.902;2022-10-13T07:16:12;22.75;;;13.48;;
3997;SDS011;61314;53.444;9.902;2022-10-13T07:18:39;20.33;;;13.68;;
3997;SDS011;61314;53.444;9.902;2022-10-13T07:21:06;27.70;;;14.82;;
3997;SDS011;61314;53.444;9.902;2022-10-13T07:23:33;20.67;;;14.68;;
3997;SDS011;61314;53.444;9.902;2022-10-13T07:26:00;31.17;;;16.48;;
3997;SDS011;61314;53.444;9.902;2022-10-13T07:28:27;19.40;;;13.25;;
3997;SDS011;61314;53.444;9.902;2022-10-13T07:30:54;21.75;;;13.35;;
3997;SDS011;61314;53.444;9.902;2022-10-13T07:33:21;24.92;;;14.65;;
3997;SDS011;61314;53.444;9.902;2022-10-13T07:35:48;32.30;;;14.63;;
3997;SDS011;61314;53.444;9.902;2022-10-13T07:38:15;24.38;;;14.35;;
3997;SDS011;61314;53.444;9.902;2022-10-13T07:40:42;26.25;;;15.32;;
3997;SDS011;61314;53.444;9.902;2022-10-13T07:43:09;30.40;;;15.07;;
3997;SDS011;61314;53.444;9.902;2022-10-13T07:45:36;28.95;;;16.08;;
3997;SDS011;61314;53.444;9.902;2022-10-13T07:48:03;22.13;;;16.10;;
3997;SDS011;61314;53.444;9.902;2022-10-13T07:50:30;37.45;;;16.45;;
3997;SDS011;61314;53.444;9.902;2022-10-13T07:52:57;32.67;;;15.50;;
3997;SDS011;61314;53.444;9.902;2022-10-13T07:55:24;24.92;;;15.05;;
3997;SDS011;61314;53.444;9.902;2022-10-13T07:57:51;22.50;;;15.75;;
3997;SDS011;61314;53.444;9.902;2022-10-13T08:00:18;31.08;;;16.83;;
3997;SDS011;61314;53.444;9.902;2022-10-13T08:02:48;25.73;;;14.05;;
3997;SDS011;61314;53.444;9.902;2022-10-13T08:05:16;35.17;;;15.13;;
3997;SDS011;61314;53.444;9.902;2022-10-13T08:07:43;26.98;;;16.58;;
3997;SDS011;61314;53.444;9.902;2022-10-13T08:10:11;25.25;;;17.08;;
3997;SDS011;61314;53.444;9.902;2022-10-13T08:12:38;30.20;;;14.88;;
3997;SDS011;61314;53.444;9.902;2022-10-13T08:15:05;25.70;;;15.32;;
3997;SDS011;61314;53.444;9.902;2022-10-13T08:17:32;24.05;;;15.77;;
3997;SDS011;61314;53.444;9.902;2022-10-13T08:19:59;26.30;;;16.05;;
3997;SDS011;61314;53.444;9.902;2022-10-13T08:22:26;31.63;;;16.35;;
3997;SDS011;61314;53.444;9.902;2022-10-13T08:24:53;25.77;;;16.13;;
3997;SDS011;61314;53.444;9.902;2022-10-13T08:27:21;36.38;;;17.63;;
3997;SDS011;61314;53.444;9.902;2022-10-13T08:30:02;26.55;;;15.95;;
3997;SDS011;61314;53.444;9.902;2022-10-13T08:32:30;30.88;;;16.50;;
3997;SDS011;61314;53.444;9.902;2022-10-13T08:34:57;27.77;;;15.35;;
3997;SDS011;61314;53.444;9.902;2022-10-13T08:37:24;24.80;;;15.37;;
3997;SDS011;61314;53.444;9.902;2022-10-13T08:39:53;28.75;;;18.40;;
3997;SDS011;61314;53.444;9.902;2022-10-13T08:42:21;30.10;;;18.45;;
3997;SDS011;61314;53.444;9.902;2022-10-13T08:44:49;23.83;;;14.82;;
3997;SDS011;61314;53.444;9.902;2022-10-13T08:47:40;26.90;;;17.02;;
3997;SDS011;61314;53.444;9.902;2022-10-13T08:50:17;32.22;;;17.88;;
3997;SDS011;61314;53.444;9.902;2022-10-13T08:52:54;28.30;;;17.23;;
3997;SDS011;61314;53.444;9.902;2022-10-13T08:55:24;26.95;;;18.52;;
3997;SDS011;61314;53.444;9.902;2022-10-13T08:57:51;23.15;;;16.10;;
3997;SDS011;61314;53.444;9.902;2022-10-13T09:00:19;35.33;;;20.33;;
3997;SDS011;61314;53.444;9.902;2022-10-13T09:02:46;34.85;;;19.27;;
3997;SDS011;61314;53.444;9.902;2022-10-13T09:05:17;32.95;;;18.77;;
3997;SDS011;61314;53.444;9.902;2022-10-13T09:07:46;36.10;;;18.30;;
3997;SDS011;61314;53.444;9.902;2022-10-13T09:10:14;30.15;;;18.42;;
3997;SDS011;61314;53.444;9.902;2022-10-13T09:12:41;33.60;;;19.90;;
3997;SDS011;61314;53.444;9.902;2022-10-13T09:15:09;30.50;;;19.00;;
3997;SDS011;61314;53.444;9.902;2022-10-13T09:17:37;28.77;;;17.23;;
3997;SDS011;61314;53.444;9.902;2022-10-13T09:20:17;26.90;;;15.33;;
3997;SDS011;61314;53.444;9.902;2022-10-13T09:22:59;27.33;;;17.07;;
3997;SDS011;61314;53.444;9.902;2022-10-13T09:25:26;31.47;;;16.57;;
3997;SDS011;61314;53.444;9.902;2022-10-13T09:27:57;25.10;;;15.87;;
3997;SDS011;61314;53.444;9.902;2022-10-13T09:32:58;25.20;;;16.60;;
3997;SDS011;61314;53.444;9.902;2022-10-13T09:35:32;28.20;;;16.50;;
3997;SDS011;61314;53.444;9.902;2022-10-13T09:38:04;27.70;;;17.67;;
3997;SDS011;61314;53.444;9.902;2022-10-13T09:40:31;26.83;;;16.37;;
3997;SDS011;61314;53.444;9.902;2022-10-13T09:42:59;24.63;;;16.17;;
3997;SDS011;61314;53.444;9.902;2022-10-13T09:45:27;32.57;;;16.90;;
3997;SDS011;61314;53.444;9.902;2022-10-13T09:47:57;28.67;;;16.87;;
3997;SDS011;61314;53.444;9.902;2022-10-13T09:50:26;26.27;;;15.53;;
3997;SDS011;61314;53.444;9.902;2022-10-13T09:52:54;29.70;;;17.53;;
3997;SDS011;61314;53.444;9.902;2022-10-13T09:55:35;23.17;;;14.53;;
3997;SDS011;61314;53.444;9.902;2022-10-13T09:58:05;23.50;;;16.40;;
3997;SDS011;61314;53.444;9.902;2022-10-13T10:00:35;33.07;;;14.67;;
3997;SDS011;61314;53.444;9.902;2022-10-13T10:03:11;28.20;;;15.07;;
3997;SDS011;61314;53.444;9.902;2022-10-13T10:05:43;23.30;;;15.30;;
3997;SDS011;61314;53.444;9.902;2022-10-13T10:08:34;22.33;;;15.70;;
3997;SDS011;61314;53.444;9.902;2022-10-13T10:11:27;30.17;;;14.33;;
3997;SDS011;61314;53.444;9.902;2022-10-13T10:13:55;22.20;;;14.77;;
3997;SDS011;61314;53.444;9.902;2022-10-13T10:26:58;22.40;;;14.60;;
3997;SDS011;61314;53.444;9.902;2022-10-13T10:29:28;25.73;;;13.70;;
3997;SDS011;61314;53.444;9.902;2022-10-13T10:32:19;22.73;;;13.67;;
3997;SDS011;61314;53.444;9.902;2022-10-13T10:34:49;23.47;;;15.10;;
3997;SDS011;61314;53.444;9.902;2022-10-13T10:40:03;20.70;;;13.13;;
3997;SDS011;61314;53.444;9.902;2022-10-13T10:42:43;21.07;;;15.67;;
3997;SDS011;61314;53.444;9.902;2022-10-13T10:45:19;19.70;;;13.30;;
3997;SDS011;61314;53.444;9.902;2022-10-13T10:47:48;25.33;;;14.67;;
3997;SDS011;61314;53.444;9.902;2022-10-13T10:50:17;23.67;;;13.57;;
3997;SDS011;61314;53.444;9.902;2022-10-13T10:52:49;19.73;;;14.23;;
3997;SDS011;61314;53.444;9.902;2022-10-13T10:57:58;25.37;;;14.03;;
3997;SDS011;61314;53.444;9.902;2022-10-13T11:00:26;22.77;;;13.93;;
3997;SDS011;61314;53.444;9.902;2022-10-13T11:05:24;17.07;;;13.30;;
3997;SDS011;61314;53.444;9.902;2022-10-13T11:07:54;18.63;;;12.20;;
3997;SDS011;61314;53.444;9.902;2022-10-13T11:10:21;20.60;;;13.80;;
3997;SDS011;61314;53.444;9.902;2022-10-13T11:15:21;23.70;;;13.67;;
3997;SDS011;61314;53.444;9.902;2022-10-13T11:17:49;27.87;;;14.17;;
3997;SDS011;61314;53.444;9.902;2022-10-13T11:30:46;19.43;;;14.50;;
3997;SDS011;61314;53.444;9.902;2022-10-13T11:36:45;20.97;;;12.23;;
3997;SDS011;61314;53.444;9.902;2022-10-13T11:38:45;23.53;;;13.63;;
3997;SDS011;61314;53.444;9.902;2022-10-13T11:41:20;17.30;;;12.07;;
3997;SDS011;61314;53.444;9.902;2022-10-13T11:44:01;23.50;;;13.67;;
3997;SDS011;61314;53.444;9.902;2022-10-13T11:46:34;22.67;;;12.33;;
3997;SDS011;61314;53.444;9.902;2022-10-13T11:49:26;26.90;;;11.73;;
3997;SDS011;61314;53.444;9.902;2022-10-13T11:54:30;26.53;;;13.13;;
3997;SDS011;61314;53.444;9.902;2022-10-13T11:56:58;25.97;;;13.30;;
3997;SDS011;61314;53.444;9.902;2022-10-13T11:59:29;17.83;;;11.43;;
3997;SDS011;61314;53.444;9.902;2022-10-13T12:01:58;17.50;;;11.70;;
3997;SDS011;61314;53.444;9.902;2022-10-13T12:04:26;14.23;;;11.13;;
3997;SDS011;61314;53.444;9.902;2022-10-13T12:07:03;24.93;;;13.47;;
3997;SDS011;61314;53.444;9.902;2022-10-13T12:09:32;19.40;;;12.23;;
3997;SDS011;61314;53.444;9.902;2022-10-13T12:12:03;20.70;;;12.00;;
3997;SDS011;61314;53.444;9.902;2022-10-13T12:14:39;24.37;;;13.67;;
3997;SDS011;61314;53.444;9.902;2022-10-13T12:19:57;15.97;;;11.50;;
3997;SDS011;61314;53.444;9.902;2022-10-13T12:22:26;23.43;;;12.73;;
3997;SDS011;61314;53.444;9.902;2022-10-13T12:27:23;18.20;;;12.53;;
3997;SDS011;61314;53.444;9.902;2022-10-13T12:29:51;27.87;;;13.20;;
3997;SDS011;61314;53.444;9.902;2022-10-13T12:32:22;30.20;;;12.17;;
3997;SDS011;61314;53.444;9.902;2022-10-13T12:34:49;19.43;;;11.37;;
3997;SDS011;61314;53.444;9.902;2022-10-13T12:37:24;21.57;;;12.23;;
3997;SDS011;61314;53.444;9.902;2022-10-13T12:39:52;16.53;;;10.93;;
3997;SDS011;61314;53.444;9.902;2022-10-13T12:42:19;21.23;;;10.97;;
3997;SDS011;61314;53.444;9.902;2022-10-13T12:44:49;21.00;;;11.97;;
3997;SDS011;61314;53.444;9.902;2022-10-13T12:50:20;12.20;;;10.90;;
3997;SDS011;61314;53.444;9.902;2022-10-13T12:52:47;21.37;;;12.33;;
3997;SDS011;61314;53.444;9.902;2022-10-13T12:55:15;19.00;;;10.40;;
3997;SDS011;61314;53.444;9.902;2022-10-13T12:57:44;21.00;;;10.67;;
3997;SDS011;61314;53.444;9.902;2022-10-13T13:05:33;21.23;;;9.00;;
3997;SDS011;61314;53.444;9.902;2022-10-13T13:08:04;13.20;;;8.87;;
3997;SDS011;61314;53.444;9.902;2022-10-13T13:10:32;14.00;;;8.57;;
3997;SDS011;61314;53.444;9.902;2022-10-13T13:13:12;18.77;;;8.73;;
3997;SDS011;61314;53.444;9.902;2022-10-13T13:15:40;16.23;;;8.57;;
3997;SDS011;61314;53.444;9.902;2022-10-13T13:18:27;18.43;;;9.10;;
3997;SDS011;61314;53.444;9.902;2022-10-13T13:20:54;11.20;;;7.50;;
3997;SDS011;61314;53.444;9.902;2022-10-13T13:23:22;10.07;;;7.53;;
3997;SDS011;61314;53.444;9.902;2022-10-13T13:25:58;16.73;;;9.80;;
3997;SDS011;61314;53.444;9.902;2022-10-13T13:28:31;15.10;;;9.27;;
3997;SDS011;61314;53.444;9.902;2022-10-13T13:30:58;12.57;;;8.40;;
3997;SDS011;61314;53.444;9.902;2022-10-13T13:33:25;13.10;;;8.20;;
3997;SDS011;61314;53.444;9.902;2022-10-13T13:35:52;13.90;;;9.43;;
3997;SDS011;61314;53.444;9.902;2022-10-13T13:38:20;10.73;;;7.10;;
3997;SDS011;61314;53.444;9.902;2022-10-13T13:40:47;18.30;;;9.07;;
3997;SDS011;61314;53.444;9.902;2022-10-13T13:43:14;10.67;;;7.40;;
3997;SDS011;61314;53.444;9.902;2022-10-13T13:45:41;9.40;;;7.23;;
3997;SDS011;61314;53.444;9.902;2022-10-13T13:48:09;13.40;;;8.27;;
3997;SDS011;61314;53.444;9.902;2022-10-13T13:50:37;11.80;;;6.37;;
3997;SDS011;61314;53.444;9.902;2022-10-13T13:53:04;18.53;;;7.97;;
3997;SDS011;61314;53.444;9.902;2022-10-13T13:55:31;21.03;;;8.43;;
3997;SDS011;61314;53.444;9.902;2022-10-13T13:57:58;12.10;;;8.50;;
3997;SDS011;61314;53.444;9.902;2022-10-13T14:00:25;11.80;;;7.20;;
3997;SDS011;61314;53.444;9.902;2022-10-13T14:02:52;11.47;;;7.30;;
3997;SDS011;61314;53.444;9.902;2022-10-13T14:05:19;10.90;;;7.70;;
3997;SDS011;61314;53.444;9.902;2022-10-13T14:07:46;10.70;;;7.70;;
3997;SDS011;61314;53.444;9.902;2022-10-13T14:10:13;8.67;;;5.87;;
3997;SDS011;61314;53.444;9.902;2022-10-13T14:12:40;8.60;;;6.67;;
3997;SDS011;61314;53.444;9.902;2022-10-13T14:15:08;7.53;;;6.50;;
3997;SDS011;61314;53.444;9.902;2022-10-13T14:17:35;16.93;;;8.00;;
3997;SDS011;61314;53.444;9.902;2022-10-13T14:20:02;7.80;;;7.00;;
3997;SDS011;61314;53.444;9.902;2022-10-13T14:22:29;16.23;;;6.90;;
3997;SDS011;61314;53.444;9.902;2022-10-13T14:24:56;19.87;;;8.03;;
3997;SDS011;61314;53.444;9.902;2022-10-13T14:27:23;17.23;;;7.10;;
3997;SDS011;61314;53.444;9.902;2022-10-13T14:29:50;12.90;;;7.80;;
3997;SDS011;61314;53.444;9.902;2022-10-13T14:32:17;12.53;;;7.30;;
3997;SDS011;61314;53.444;9.902;2022-10-13T14:34:45;15.17;;;6.70;;
3997;SDS011;61314;53.444;9.902;2022-10-13T14:37:12;12.47;;;6.83;;
3997;SDS011;61314;53.444;9.902;2022-10-13T14:39:39;15.23;;;6.87;;
3997;SDS011;61314;53.444;9.902;2022-10-13T14:42:06;17.53;;;7.40;;
3997;SDS011;61314;53.444;9.902;2022-10-13T14:44:33;16.63;;;8.17;;
3997;SDS011;61314;53.444;9.902;2022-10-13T14:47:00;9.00;;;6.00;;
3997;SDS011;61314;53.444;9.902;2022-10-13T14:49:27;12.73;;;7.20;;
3997;SDS011;61314;53.444;9.902;2022-10-13T14:51:54;15.73;;;6.70;;
3997;SDS011;61314;53.444;9.902;2022-10-13T14:54:21;24.07;;;7.90;;
3997;SDS011;61314;53.444;9.902;2022-10-13T14:56:49;11.20;;;5.73;;
3997;SDS011;61314;53.444;9.902;2022-10-13T14:59:16;13.43;;;5.50;;
3997;SDS011;61314;53.444;9.902;2022-10-13T15:01:44;23.77;;;7.03;;
3997;SDS011;61314;53.444;9.902;2022-10-13T15:04:11;12.70;;;6.67;;
3997;SDS011;61314;53.444;9.902;2022-10-13T15:06:38;15.20;;;6.87;;
3997;SDS011;61314;53.444;9.902;2022-10-13T15:09:06;12.17;;;6.20;;
3997;SDS011;61314;53.444;9.902;2022-10-13T15:11:39;16.73;;;6.37;;
3997;SDS011;61314;53.444;9.902;2022-10-13T15:14:06;15.67;;;6.37;;
3997;SDS011;61314;53.444;9.902;2022-10-13T15:16:34;15.20;;;6.30;;
3997;SDS011;61314;53.444;9.902;2022-10-13T15:19:03;8.73;;;5.20;;
3997;SDS011;61314;53.444;9.902;2022-10-13T15:21:54;10.37;;;6.03;;
3997;SDS011;61314;53.444;9.902;2022-10-13T15:24:21;12.13;;;5.87;;
3997;SDS011;61314;53.444;9.902;2022-10-13T15:26:48;12.50;;;6.27;;
3997;SDS011;61314;53.444;9.902;2022-10-13T15:29:15;12.50;;;6.20;;
3997;SDS011;61314;53.444;9.902;2022-10-13T15:31:42;19.20;;;5.50;;
3997;SDS011;61314;53.444;9.902;2022-10-13T15:34:09;17.00;;;5.90;;
3997;SDS011;61314;53.444;9.902;2022-10-13T15:36:36;11.97;;;5.33;;
3997;SDS011;61314;53.444;9.902;2022-10-13T15:39:03;13.43;;;5.50;;
3997;SDS011;61314;53.444;9.902;2022-10-13T15:41:31;10.77;;;5.20;;
3997;SDS011;61314;53.444;9.902;2022-10-13T15:43:58;8.30;;;5.80;;
3997;SDS011;61314;53.444;9.902;2022-10-13T15:46:25;13.67;;;5.60;;
3997;SDS011;61314;53.444;9.902;2022-10-13T15:48:53;10.40;;;5.23;;
3997;SDS011;61314;53.444;9.902;2022-10-13T15:51:21;11.63;;;5.30;;
3997;SDS011;61314;53.444;9.902;2022-10-13T15:53:49;11.77;;;5.30;;
3997;SDS011;61314;53.444;9.902;2022-10-13T15:56:16;7.97;;;4.20;;
3997;SDS011;61314;53.444;9.902;2022-10-13T15:58:43;11.33;;;5.20;;